createdAt,value
2019-01-20T00:00:47.424Z,11.83
2019-01-20T00:05:53.667Z,12.60
2019-01-20T00:10:59.763Z,11.80
2019-01-20T00:16:06.197Z,12.53
2019-01-20T00:21:12.389Z,12.93
2019-01-20T00:26:18.539Z,12.90
2019-01-20T00:31:24.698Z,12.93
2019-01-20T00:36:30.766Z,12.10
2019-01-20T00:41:36.871Z,12.60
2019-01-20T00:46:43.038Z,12.73
2019-01-20T00:51:49.145Z,13.17
2019-01-20T00:56:55.169Z,13.00
2019-01-20T01:02:01.265Z,13.10
2019-01-20T01:07:07.648Z,12.83
2019-01-20T01:12:17.496Z,13.17
2019-01-20T01:17:23.677Z,13.43
2019-01-20T01:22:29.799Z,13.63
2019-01-20T01:27:35.821Z,14.00
2019-01-20T01:32:41.862Z,12.20
2019-01-20T01:37:48.891Z,12.17
2019-01-20T01:42:55.111Z,12.20
2019-01-20T01:48:01.229Z,12.10
2019-01-20T01:53:07.437Z,10.77
2019-01-20T01:58:13.412Z,10.00
2019-01-20T02:03:19.535Z,9.87
2019-01-20T02:08:25.632Z,10.13
2019-01-20T02:13:31.805Z,9.03
2019-01-20T02:18:37.916Z,10.03
2019-01-20T02:23:44.041Z,10.27
2019-01-20T02:28:50.232Z,10.60
2019-01-20T02:33:56.426Z,10.07
2019-01-20T02:39:02.533Z,10.80
2019-01-20T02:44:09.710Z,10.80
2019-01-20T02:49:15.799Z,11.07
2019-01-20T02:54:21.870Z,10.50
2019-01-20T02:59:28.053Z,9.30
2019-01-20T03:04:34.214Z,9.40
2019-01-20T03:09:40.181Z,10.17
2019-01-20T03:14:46.254Z,9.70
2019-01-20T03:19:52.358Z,8.93
2019-01-20T03:24:58.439Z,9.43
2019-01-20T03:30:05.330Z,8.47
2019-01-20T03:35:11.548Z,8.50
2019-01-20T03:40:18.455Z,8.10
2019-01-20T03:45:24.659Z,8.63
2019-01-20T03:50:30.846Z,8.87
2019-01-20T03:55:37.000Z,8.53
2019-01-20T04:00:43.172Z,8.60
2019-01-20T04:05:49.661Z,8.57
2019-01-20T04:10:55.730Z,8.40
2019-01-20T04:16:01.826Z,8.67
2019-01-20T04:21:07.775Z,8.37
2019-01-20T04:26:13.963Z,8.80
2019-01-20T04:31:20.094Z,8.30
2019-01-20T04:36:26.238Z,8.10
2019-01-20T04:41:32.304Z,8.73
2019-01-20T04:46:38.493Z,8.50
2019-01-20T04:51:44.607Z,9.17
2019-01-20T04:56:50.810Z,8.80
2019-01-20T05:01:56.897Z,8.77
2019-01-20T05:07:02.978Z,8.50
2019-01-20T05:12:09.112Z,8.93
2019-01-20T05:17:15.287Z,9.80
2019-01-20T05:22:21.341Z,9.73
2019-01-20T05:27:27.604Z,9.60
2019-01-20T05:32:33.735Z,8.97
2019-01-20T05:37:39.904Z,9.77
2019-01-20T05:42:46.716Z,9.57
2019-01-20T05:47:52.974Z,11.43
2019-01-20T05:52:59.130Z,11.13
2019-01-20T05:58:05.265Z,11.50
2019-01-20T06:03:11.509Z,10.20
2019-01-20T06:08:17.638Z,10.83
2019-01-20T06:13:23.611Z,11.20
2019-01-20T06:18:29.643Z,11.20
2019-01-20T06:23:35.826Z,10.63
2019-01-20T06:28:41.984Z,10.27
2019-01-20T06:34:06.847Z,10.30
2019-01-20T06:39:13.010Z,10.60
2019-01-20T06:44:19.065Z,10.27
2019-01-20T06:49:25.130Z,9.87
2019-01-20T06:54:31.141Z,10.27
2019-01-20T06:59:37.201Z,10.10
2019-01-20T07:04:43.341Z,10.63
2019-01-20T07:09:49.546Z,11.00
2019-01-20T07:14:55.608Z,9.63
2019-01-20T07:20:01.684Z,10.10
2019-01-20T07:25:08.107Z,10.97
2019-01-20T07:30:19.280Z,11.80
2019-01-20T07:35:25.415Z,11.50
2019-01-20T07:40:31.505Z,12.33
2019-01-20T07:45:37.591Z,12.80
2019-01-20T07:50:43.761Z,13.93
2019-01-20T07:55:50.988Z,23.47
2019-01-20T08:00:57.997Z,18.13
2019-01-20T08:06:04.235Z,17.00
2019-01-20T08:11:10.344Z,15.30
2019-01-20T08:16:16.424Z,11.77
2019-01-20T08:21:23.695Z,23.07
2019-01-20T08:26:29.869Z,27.83
2019-01-20T08:31:36.034Z,28.77
2019-01-20T08:36:42.024Z,21.77
2019-01-20T08:41:48.071Z,17.23
2019-01-20T08:47:30.835Z,19.13
2019-01-20T08:52:36.932Z,19.00
2019-01-20T08:57:42.989Z,21.33
2019-01-20T09:02:49.153Z,19.37
2019-01-20T09:07:55.309Z,16.93
2019-01-20T09:13:07.407Z,17.40
2019-01-20T09:18:13.737Z,16.97
2019-01-20T09:23:19.902Z,15.57
2019-01-20T09:28:25.985Z,16.37
2019-01-20T09:33:33.541Z,19.27
2019-01-20T09:38:39.735Z,19.30
2019-01-20T09:43:47.389Z,19.53
2019-01-20T09:48:53.950Z,18.23
2019-01-20T09:54:00.805Z,17.37
2019-01-20T09:59:07.011Z,18.70
2019-01-20T10:04:13.108Z,17.73
2019-01-20T10:09:19.191Z,17.90
2019-01-20T10:14:25.270Z,23.80
2019-01-20T10:19:31.438Z,17.93
2019-01-20T10:24:37.575Z,19.60
2019-01-20T10:29:43.802Z,16.40
2019-01-20T10:34:51.066Z,15.23
2019-01-20T10:39:57.342Z,16.77
2019-01-20T10:45:03.837Z,16.40
2019-01-20T10:50:11.063Z,15.07
2019-01-20T10:55:17.156Z,16.87
2019-01-20T11:00:25.674Z,20.80
2019-01-20T11:05:32.825Z,16.57
2019-01-20T11:10:39.962Z,16.83
2019-01-20T11:15:46.442Z,17.00
2019-01-20T11:20:52.610Z,17.27
2019-01-20T11:25:58.673Z,17.43
2019-01-20T11:31:04.778Z,18.07
2019-01-20T11:36:10.940Z,18.97
2019-01-20T11:41:17.209Z,18.37
2019-01-20T11:46:23.431Z,17.73
2019-01-20T11:51:29.592Z,19.37
2019-01-20T11:56:36.648Z,16.87
2019-01-20T12:01:42.844Z,16.97
2019-01-20T12:06:48.944Z,16.80
2019-01-20T12:12:05.686Z,16.50
2019-01-20T12:17:12.097Z,16.13
2019-01-20T12:22:18.212Z,16.30
2019-01-20T12:27:24.353Z,18.00
2019-01-20T12:32:30.642Z,15.43
2019-01-20T12:37:36.909Z,15.57
2019-01-20T12:42:43.144Z,15.37
2019-01-20T12:47:49.326Z,15.57
2019-01-20T12:52:55.550Z,16.27
2019-01-20T12:58:01.658Z,17.67
2019-01-20T13:03:08.701Z,21.40
2019-01-20T13:08:14.880Z,14.13
2019-01-20T13:13:20.932Z,15.33
2019-01-20T13:18:27.153Z,14.47
2019-01-20T13:23:33.260Z,14.00
2019-01-20T13:28:39.419Z,16.57
2019-01-20T13:33:45.405Z,13.13
2019-01-20T13:38:51.585Z,12.90
2019-01-20T13:43:58.466Z,13.30
2019-01-20T13:49:04.736Z,14.00
2019-01-20T13:54:10.913Z,13.50
2019-01-20T13:59:17.043Z,14.27
2019-01-20T14:04:24.181Z,14.23
2019-01-20T14:09:30.265Z,14.10
2019-01-20T14:14:36.363Z,14.40
2019-01-20T14:19:42.546Z,14.83
2019-01-20T14:24:48.677Z,14.93
2019-01-20T14:29:54.826Z,14.73
2019-01-20T14:35:02.141Z,14.30
2019-01-20T14:40:08.931Z,13.33
2019-01-20T14:45:16.774Z,14.27
2019-01-20T14:50:25.129Z,14.10
2019-01-20T14:55:31.167Z,14.73
2019-01-20T15:00:38.091Z,14.77
2019-01-20T15:05:44.260Z,14.80
2019-01-20T15:10:50.347Z,16.23
2019-01-20T15:15:56.406Z,16.27
2019-01-20T15:21:02.490Z,15.17
2019-01-20T15:26:08.652Z,20.43
2019-01-20T15:31:14.798Z,16.37
2019-01-20T15:36:21.010Z,15.13
2019-01-20T15:41:27.175Z,15.90
2019-01-20T15:46:33.269Z,14.53
2019-01-20T15:51:39.457Z,15.17
2019-01-20T15:56:45.528Z,14.37
2019-01-20T16:01:51.683Z,16.37
2019-01-20T16:06:57.865Z,17.87
2019-01-20T16:12:05.053Z,19.47
2019-01-20T16:17:11.169Z,18.83
2019-01-20T16:22:17.313Z,20.83
2019-01-20T16:27:23.706Z,18.90
2019-01-20T16:32:31.381Z,18.77
2019-01-20T16:37:37.542Z,19.97
2019-01-20T16:42:43.673Z,17.93
2019-01-20T16:47:49.822Z,18.73
2019-01-20T16:52:56.136Z,19.77
2019-01-20T16:58:02.201Z,19.83
2019-01-20T17:03:08.357Z,20.67
2019-01-20T17:08:14.680Z,21.93
2019-01-20T17:13:20.764Z,21.20
2019-01-20T17:18:26.980Z,22.27
2019-01-20T17:23:33.191Z,24.57
2019-01-20T17:28:39.265Z,23.87
2019-01-20T17:33:45.366Z,25.33
2019-01-20T17:38:52.452Z,25.43
2019-01-20T17:43:58.539Z,24.37
2019-01-20T17:49:04.686Z,23.37
2019-01-20T17:54:10.846Z,25.73
2019-01-20T17:59:16.944Z,23.73
2019-01-20T18:04:23.031Z,22.73
2019-01-20T18:09:29.111Z,37.10
2019-01-20T18:14:35.347Z,22.23
2019-01-20T18:19:41.552Z,25.00
2019-01-20T18:24:47.655Z,29.40
2019-01-20T18:29:53.686Z,25.90
2019-01-20T18:34:59.844Z,24.47
2019-01-20T18:40:09.337Z,25.67
2019-01-20T18:45:17.468Z,28.53
2019-01-20T18:50:25.897Z,26.00
2019-01-20T18:55:31.983Z,25.47
2019-01-20T19:00:49.635Z,24.20
2019-01-20T19:05:55.794Z,24.63
2019-01-20T19:11:02.041Z,24.23
2019-01-20T19:16:09.054Z,25.90
2019-01-20T19:21:15.409Z,24.00
2019-01-20T19:26:21.706Z,22.77
2019-01-20T19:31:27.803Z,23.57
2019-01-20T19:36:34.093Z,22.37
2019-01-20T19:41:40.106Z,29.17
2019-01-20T19:46:46.285Z,28.83
2019-01-20T19:51:52.483Z,24.87
2019-01-20T19:56:58.556Z,21.17
2019-01-20T20:02:04.357Z,21.10
2019-01-20T20:07:10.333Z,31.03
2019-01-20T20:12:16.380Z,38.97
2019-01-20T20:17:22.458Z,28.63
2019-01-20T20:22:28.552Z,27.40
2019-01-20T20:27:34.747Z,24.57
2019-01-20T20:32:41.898Z,24.93
2019-01-20T20:37:48.153Z,25.87
2019-01-20T20:42:54.360Z,28.83
2019-01-20T20:48:00.811Z,25.27
2019-01-20T20:53:07.194Z,25.03
2019-01-20T20:58:13.386Z,27.83
2019-01-20T21:03:24.922Z,27.67
2019-01-20T21:08:31.240Z,23.90
2019-01-20T21:13:37.469Z,25.07
2019-01-20T21:18:43.705Z,26.13
2019-01-20T21:23:49.919Z,25.63
2019-01-20T21:28:56.036Z,26.20
2019-01-20T21:34:02.274Z,27.87
2019-01-20T21:39:09.476Z,31.93
2019-01-20T21:44:15.789Z,24.20
2019-01-20T21:49:22.526Z,23.00
2019-01-20T21:54:28.833Z,22.40
2019-01-20T21:59:35.001Z,22.97
2019-01-20T22:04:41.189Z,25.80
2019-01-20T22:09:53.725Z,23.87
2019-01-20T22:14:59.894Z,23.17
2019-01-20T22:20:06.685Z,23.70
2019-01-20T22:25:12.900Z,21.80
2019-01-20T22:30:28.736Z,22.60
2019-01-20T22:35:34.829Z,22.53
2019-01-20T22:40:40.974Z,22.63
2019-01-20T22:45:47.153Z,23.37
2019-01-20T22:50:53.267Z,23.13
2019-01-20T22:55:59.348Z,22.63
2019-01-20T23:01:15.437Z,22.90
2019-01-20T23:06:21.518Z,23.60
2019-01-20T23:11:27.784Z,24.73
2019-01-20T23:16:33.957Z,22.93
2019-01-20T23:21:40.054Z,23.47
2019-01-20T23:26:46.143Z,21.70
2019-01-20T23:31:52.309Z,22.27
2019-01-20T23:36:58.447Z,21.33
2019-01-20T23:42:04.483Z,20.53
2019-01-20T23:47:15.051Z,21.07
2019-01-20T23:52:18.334Z,19.90
2019-01-20T23:57:24.497Z,20.50
